sensor_id;sensor_type;location;lat;lon;timestamp;pressure;altitude;pressure_sealevel;temperature;humidity
54900;BME280;40801;41.924;25.562;2024-02-23T00:01:02;99465.06;;;10.33;66.42
54900;BME280;40801;41.924;25.562;2024-02-23T00:03:27;99469.66;;;10.33;66.65
54900;BME280;40801;41.924;25.562;2024-02-23T00:05:53;99464.75;;;10.35;66.66
54900;BME280;40801;41.924;25.562;2024-02-23T00:08:18;99457.28;;;10.32;66.58
54900;BME280;40801;41.924;25.562;2024-02-23T00:10:44;99462.06;;;10.35;66.39
54900;BME280;40801;41.924;25.562;2024-02-23T00:13:09;99455.56;;;10.36;66.23
54900;BME280;40801;41.924;25.562;2024-02-23T00:15:35;99453.19;;;10.34;66.31
54900;BME280;40801;41.924;25.562;2024-02-23T00:18:00;99455.50;;;10.41;66.16
54900;BME280;40801;41.924;25.562;2024-02-23T00:20:28;99453.69;;;10.36;66.34
54900;BME280;40801;41.924;25.562;2024-02-23T00:22:54;99458.97;;;10.28;66.48
54900;BME280;40801;41.924;25.562;2024-02-23T00:25:19;99453.88;;;10.12;67.51
54900;BME280;40801;41.924;25.562;2024-02-23T00:27:44;99453.28;;;10.15;66.68
54900;BME280;40801;41.924;25.562;2024-02-23T00:30:12;99446.06;;;10.11;66.78
54900;BME280;40801;41.924;25.562;2024-02-23T00:32:38;99442.47;;;10.02;67.07
54900;BME280;40801;41.924;25.562;2024-02-23T00:35:03;99438.78;;;9.98;67.05
54900;BME280;40801;41.924;25.562;2024-02-23T00:37:29;99437.19;;;9.97;67.36
54900;BME280;40801;41.924;25.562;2024-02-23T00:39:54;99444.09;;;9.89;67.71
54900;BME280;40801;41.924;25.562;2024-02-23T00:42:20;99437.59;;;9.90;67.00
54900;BME280;40801;41.924;25.562;2024-02-23T00:44:46;99434.78;;;9.81;67.48
54900;BME280;40801;41.924;25.562;2024-02-23T00:47:11;99427.59;;;9.77;67.28
54900;BME280;40801;41.924;25.562;2024-02-23T00:49:37;99433.09;;;9.72;67.60
54900;BME280;40801;41.924;25.562;2024-02-23T00:52:02;99432.47;;;9.61;67.69
54900;BME280;40801;41.924;25.562;2024-02-23T00:54:27;99432.28;;;9.57;67.67
54900;BME280;40801;41.924;25.562;2024-02-23T00:56:53;99439.41;;;9.48;67.92
54900;BME280;40801;41.924;25.562;2024-02-23T00:59:18;99435.22;;;9.42;68.17
54900;BME280;40801;41.924;25.562;2024-02-23T01:01:44;99437.22;;;9.37;67.81
54900;BME280;40801;41.924;25.562;2024-02-23T01:04:09;99431.91;;;9.31;68.30
54900;BME280;40801;41.924;25.562;2024-02-23T01:06:34;99448.94;;;9.27;68.17
54900;BME280;40801;41.924;25.562;2024-02-23T01:09:00;99439.03;;;9.22;68.46
54900;BME280;40801;41.924;25.562;2024-02-23T01:11:26;99429.25;;;9.13;68.10
54900;BME280;40801;41.924;25.562;2024-02-23T01:13:51;99439.00;;;9.09;68.66
54900;BME280;40801;41.924;25.562;2024-02-23T01:16:16;99432.47;;;8.96;68.71
54900;BME280;40801;41.924;25.562;2024-02-23T01:18:42;99430.06;;;8.94;68.51
54900;BME280;40801;41.924;25.562;2024-02-23T01:21:08;99424.56;;;8.86;69.23
54900;BME280;40801;41.924;25.562;2024-02-23T01:23:33;99421.06;;;8.85;69.64
54900;BME280;40801;41.924;25.562;2024-02-23T01:25:58;99415.19;;;8.83;69.07
54900;BME280;40801;41.924;25.562;2024-02-23T01:28:25;99414.69;;;8.81;69.12
54900;BME280;40801;41.924;25.562;2024-02-23T01:30:51;99409.75;;;8.69;69.42
54900;BME280;40801;41.924;25.562;2024-02-23T01:33:16;99414.09;;;8.65;69.26
54900;BME280;40801;41.924;25.562;2024-02-23T01:35:41;99410.19;;;8.58;70.04
54900;BME280;40801;41.924;25.562;2024-02-23T01:38:07;99403.78;;;8.54;69.91
54900;BME280;40801;41.924;25.562;2024-02-23T01:40:32;99394.72;;;8.50;69.98
54900;BME280;40801;41.924;25.562;2024-02-23T01:43:02;99395.00;;;8.48;70.05
54900;BME280;40801;41.924;25.562;2024-02-23T01:45:29;99392.19;;;8.40;70.12
54900;BME280;40801;41.924;25.562;2024-02-23T01:47:54;99386.81;;;8.40;69.63
54900;BME280;40801;41.924;25.562;2024-02-23T01:50:20;99387.34;;;8.36;69.90
54900;BME280;40801;41.924;25.562;2024-02-23T01:52:45;99381.47;;;8.34;69.44
54900;BME280;40801;41.924;25.562;2024-02-23T01:55:11;99386.47;;;8.22;70.76
54900;BME280;40801;41.924;25.562;2024-02-23T01:57:36;99386.97;;;8.24;70.34
54900;BME280;40801;41.924;25.562;2024-02-23T02:00:03;99392.19;;;8.16;71.19
54900;BME280;40801;41.924;25.562;2024-02-23T02:02:29;99387.31;;;8.18;71.18
54900;BME280;40801;41.924;25.562;2024-02-23T02:04:55;99387.63;;;8.16;71.11
54900;BME280;40801;41.924;25.562;2024-02-23T02:07:20;99393.56;;;8.13;70.53
54900;BME280;40801;41.924;25.562;2024-02-23T02:09:48;99390.19;;;8.02;71.48
54900;BME280;40801;41.924;25.562;2024-02-23T02:12:13;99384.53;;;8.04;70.70
54900;BME280;40801;41.924;25.562;2024-02-23T02:14:38;99385.41;;;7.99;71.53
54900;BME280;40801;41.924;25.562;2024-02-23T02:17:04;99383.56;;;7.95;71.82
54900;BME280;40801;41.924;25.562;2024-02-23T02:19:29;99376.75;;;7.84;71.39
54900;BME280;40801;41.924;25.562;2024-02-23T02:21:55;99385.69;;;7.74;72.01
54900;BME280;40801;41.924;25.562;2024-02-23T02:24:21;99384.78;;;7.84;71.17
54900;BME280;40801;41.924;25.562;2024-02-23T02:26:47;99389.69;;;7.76;72.15
54900;BME280;40801;41.924;25.562;2024-02-23T02:29:15;99386.78;;;7.73;71.74
54900;BME280;40801;41.924;25.562;2024-02-23T02:31:40;99386.25;;;7.71;71.45
54900;BME280;40801;41.924;25.562;2024-02-23T02:34:06;99384.44;;;7.66;72.13
54900;BME280;40801;41.924;25.562;2024-02-23T02:36:31;99375.06;;;7.64;71.12
54900;BME280;40801;41.924;25.562;2024-02-23T02:38:57;99381.47;;;7.68;71.04
54900;BME280;40801;41.924;25.562;2024-02-23T02:41:24;99379.41;;;7.60;70.86
54900;BME280;40801;41.924;25.562;2024-02-23T02:43:52;99371.88;;;7.62;70.62
54900;BME280;40801;41.924;25.562;2024-02-23T02:46:18;99374.34;;;7.58;71.08
54900;BME280;40801;41.924;25.562;2024-02-23T02:48:43;99376.78;;;7.55;71.47
54900;BME280;40801;41.924;25.562;2024-02-23T02:51:08;99377.34;;;7.52;71.51
54900;BME280;40801;41.924;25.562;2024-02-23T02:53:35;99375.78;;;7.45;72.02
54900;BME280;40801;41.924;25.562;2024-02-23T02:56:00;99378.75;;;7.44;71.70
54900;BME280;40801;41.924;25.562;2024-02-23T02:58:25;99384.97;;;7.39;71.65
54900;BME280;40801;41.924;25.562;2024-02-23T03:00:51;99386.34;;;7.37;71.59
54900;BME280;40801;41.924;25.562;2024-02-23T03:03:16;99390.91;;;7.36;72.13
54900;BME280;40801;41.924;25.562;2024-02-23T03:05:42;99386.34;;;7.37;71.73
54900;BME280;40801;41.924;25.562;2024-02-23T03:08:07;99387.44;;;7.36;72.26
54900;BME280;40801;41.924;25.562;2024-02-23T03:10:32;99390.22;;;7.26;72.50
54900;BME280;40801;41.924;25.562;2024-02-23T03:12:58;99382.47;;;7.24;72.69
54900;BME280;40801;41.924;25.562;2024-02-23T03:15:23;99382.34;;;7.34;71.45
54900;BME280;40801;41.924;25.562;2024-02-23T03:17:49;99390.47;;;7.29;72.18
54900;BME280;40801;41.924;25.562;2024-02-23T03:20:15;99379.78;;;7.24;72.57
54900;BME280;40801;41.924;25.562;2024-02-23T03:22:41;99376.81;;;7.26;72.53
54900;BME280;40801;41.924;25.562;2024-02-23T03:25:06;99367.97;;;7.25;72.58
54900;BME280;40801;41.924;25.562;2024-02-23T03:27:37;99369.78;;;7.30;72.06
54900;BME280;40801;41.924;25.562;2024-02-23T03:30:06;99366.03;;;7.31;72.17
54900;BME280;40801;41.924;25.562;2024-02-23T03:32:35;99370.81;;;7.34;71.78
54900;BME280;40801;41.924;25.562;2024-02-23T03:35:05;99375.22;;;7.25;72.37
54900;BME280;40801;41.924;25.562;2024-02-23T03:37:31;99368.84;;;7.15;73.01
54900;BME280;40801;41.924;25.562;2024-02-23T03:39:56;99373.34;;;7.25;72.43
54900;BME280;40801;41.924;25.562;2024-02-23T03:42:21;99371.69;;;7.29;72.07
54900;BME280;40801;41.924;25.562;2024-02-23T03:44:47;99378.66;;;7.30;72.20
54900;BME280;40801;41.924;25.562;2024-02-23T03:47:12;99380.28;;;7.26;72.09
54900;BME280;40801;41.924;25.562;2024-02-23T03:49:38;99379.66;;;7.34;71.87
54900;BME280;40801;41.924;25.562;2024-02-23T03:52:04;99375.97;;;7.30;72.21
54900;BME280;40801;41.924;25.562;2024-02-23T03:54:30;99371.69;;;7.29;72.26
54900;BME280;40801;41.924;25.562;2024-02-23T03:56:56;99372.41;;;7.35;72.11
54900;BME280;40801;41.924;25.562;2024-02-23T03:59:22;99371.63;;;7.34;71.87
54900;BME280;40801;41.924;25.562;2024-02-23T04:01:47;99375.91;;;7.35;71.58
54900;BME280;40801;41.924;25.562;2024-02-23T04:04:13;99373.78;;;7.32;71.75
54900;BME280;40801;41.924;25.562;2024-02-23T04:06:38;99379.44;;;7.31;71.61
54900;BME280;40801;41.924;25.562;2024-02-23T04:09:04;99372.81;;;7.23;71.76
54900;BME280;40801;41.924;25.562;2024-02-23T04:11:30;99383.78;;;7.22;72.15
54900;BME280;40801;41.924;25.562;2024-02-23T04:13:56;99388.19;;;7.12;72.63
54900;BME280;40801;41.924;25.562;2024-02-23T04:16:25;99382.31;;;7.10;72.30
54900;BME280;40801;41.924;25.562;2024-02-23T04:18:50;99383.94;;;7.06;72.21
54900;BME280;40801;41.924;25.562;2024-02-23T04:21:16;99379.47;;;6.97;72.57
54900;BME280;40801;41.924;25.562;2024-02-23T04:23:43;99378.69;;;6.91;72.10
54900;BME280;40801;41.924;25.562;2024-02-23T04:26:08;99382.50;;;6.85;72.41
54900;BME280;40801;41.924;25.562;2024-02-23T04:28:34;99370.28;;;6.74;72.55
54900;BME280;40801;41.924;25.562;2024-02-23T04:30:59;99378.41;;;6.59;72.93
54900;BME280;40801;41.924;25.562;2024-02-23T04:33:26;99373.88;;;6.54;73.00
54900;BME280;40801;41.924;25.562;2024-02-23T04:35:51;99374.41;;;6.56;72.93
54900;BME280;40801;41.924;25.562;2024-02-23T04:38:16;99374.19;;;6.47;73.09
54900;BME280;40801;41.924;25.562;2024-02-23T04:40:42;99379.56;;;6.47;73.20
54900;BME280;40801;41.924;25.562;2024-02-23T04:43:07;99379.84;;;6.46;73.02
54900;BME280;40801;41.924;25.562;2024-02-23T04:45:33;99382.03;;;6.39;73.54
54900;BME280;40801;41.924;25.562;2024-02-23T04:47:58;99386.09;;;6.26;74.08
54900;BME280;40801;41.924;25.562;2024-02-23T04:50:23;99388.19;;;6.34;73.39
54900;BME280;40801;41.924;25.562;2024-02-23T04:52:49;99390.06;;;6.39;73.10
54900;BME280;40801;41.924;25.562;2024-02-23T04:55:15;99387.38;;;6.39;72.95
54900;BME280;40801;41.924;25.562;2024-02-23T04:57:40;99397.28;;;6.38;73.40
54900;BME280;40801;41.924;25.562;2024-02-23T05:00:06;99398.34;;;6.42;73.28
54900;BME280;40801;41.924;25.562;2024-02-23T05:02:33;99392.50;;;6.30;73.39
54900;BME280;40801;41.924;25.562;2024-02-23T05:05:02;99408.88;;;6.24;73.64
54900;BME280;40801;41.924;25.562;2024-02-23T05:07:32;99406.22;;;6.18;73.05
54900;BME280;40801;41.924;25.562;2024-02-23T05:09:58;99420.47;;;6.09;72.94
54900;BME280;40801;41.924;25.562;2024-02-23T05:12:24;99422.63;;;5.97;73.10
54900;BME280;40801;41.924;25.562;2024-02-23T05:14:49;99418.63;;;5.94;72.65
54900;BME280;40801;41.924;25.562;2024-02-23T05:17:14;99426.69;;;5.79;73.03
54900;BME280;40801;41.924;25.562;2024-02-23T05:19:40;99422.41;;;5.68;73.63
54900;BME280;40801;41.924;25.562;2024-02-23T05:22:05;99427.53;;;5.59;73.42
54900;BME280;40801;41.924;25.562;2024-02-23T05:24:30;99428.59;;;5.63;73.05
54900;BME280;40801;41.924;25.562;2024-02-23T05:26:56;99427.00;;;5.62;72.99
54900;BME280;40801;41.924;25.562;2024-02-23T05:29:23;99441.44;;;5.56;73.31
54900;BME280;40801;41.924;25.562;2024-02-23T05:31:51;99432.91;;;5.54;73.38
54900;BME280;40801;41.924;25.562;2024-02-23T05:34:17;99438.50;;;5.52;73.15
54900;BME280;40801;41.924;25.562;2024-02-23T05:36:43;99442.00;;;5.53;73.43
54900;BME280;40801;41.924;25.562;2024-02-23T05:39:09;99439.84;;;5.45;73.98
54900;BME280;40801;41.924;25.562;2024-02-23T05:41:36;99444.66;;;5.43;74.39
54900;BME280;40801;41.924;25.562;2024-02-23T05:44:03;99438.50;;;5.42;74.10
54900;BME280;40801;41.924;25.562;2024-02-23T05:46:39;99450.81;;;5.48;74.02
54900;BME280;40801;41.924;25.562;2024-02-23T05:49:05;99447.09;;;5.49;73.78
54900;BME280;40801;41.924;25.562;2024-02-23T05:51:30;99449.19;;;5.47;74.08
54900;BME280;40801;41.924;25.562;2024-02-23T05:53:57;99452.66;;;5.48;73.94
54900;BME280;40801;41.924;25.562;2024-02-23T05:56:22;99447.59;;;5.46;74.14
54900;BME280;40801;41.924;25.562;2024-02-23T05:58:50;99454.03;;;5.55;74.42
54900;BME280;40801;41.924;25.562;2024-02-23T06:01:15;99454.00;;;5.60;74.39
54900;BME280;40801;41.924;25.562;2024-02-23T06:03:40;99456.66;;;5.71;73.95
54900;BME280;40801;41.924;25.562;2024-02-23T06:06:09;99465.50;;;5.71;74.66
54900;BME280;40801;41.924;25.562;2024-02-23T06:08:35;99470.88;;;5.61;75.12
54900;BME280;40801;41.924;25.562;2024-02-23T06:11:02;99471.38;;;5.68;74.32
54900;BME280;40801;41.924;25.562;2024-02-23T06:13:28;99467.38;;;5.66;75.40
54900;BME280;40801;41.924;25.562;2024-02-23T06:15:54;99471.09;;;5.90;73.93
54900;BME280;40801;41.924;25.562;2024-02-23T06:18:19;99470.84;;;5.92;74.53
54900;BME280;40801;41.924;25.562;2024-02-23T06:20:45;99469.19;;;6.06;74.84
54900;BME280;40801;41.924;25.562;2024-02-23T06:23:10;99471.06;;;6.10;75.05
54900;BME280;40801;41.924;25.562;2024-02-23T06:25:36;99481.94;;;6.29;74.38
54900;BME280;40801;41.924;25.562;2024-02-23T06:28:01;99478.44;;;6.44;73.74
54900;BME280;40801;41.924;25.562;2024-02-23T06:30:26;99480.81;;;6.45;74.54
54900;BME280;40801;41.924;25.562;2024-02-23T06:32:52;99492.50;;;6.65;74.63
54900;BME280;40801;41.924;25.562;2024-02-23T06:35:18;99486.56;;;6.78;73.91
54900;BME280;40801;41.924;25.562;2024-02-23T06:37:43;99484.09;;;6.87;74.26
54900;BME280;40801;41.924;25.562;2024-02-23T06:40:09;99482.97;;;6.98;73.82
54900;BME280;40801;41.924;25.562;2024-02-23T06:42:35;99477.56;;;7.03;74.24
54900;BME280;40801;41.924;25.562;2024-02-23T06:45:00;99484.63;;;7.23;73.22
54900;BME280;40801;41.924;25.562;2024-02-23T06:47:26;99492.84;;;7.36;72.92
54900;BME280;40801;41.924;25.562;2024-02-23T06:49:51;99482.88;;;7.42;73.32
54900;BME280;40801;41.924;25.562;2024-02-23T06:52:17;99481.16;;;7.85;73.92
54900;BME280;40801;41.924;25.562;2024-02-23T06:54:43;99481.47;;;8.74;73.71
54900;BME280;40801;41.924;25.562;2024-02-23T06:57:08;99467.38;;;9.66;71.20
54900;BME280;40801;41.924;25.562;2024-02-23T06:59:34;99477.06;;;10.41;69.14
54900;BME280;40801;41.924;25.562;2024-02-23T07:01:59;99468.31;;;11.30;68.02
54900;BME280;40801;41.924;25.562;2024-02-23T07:04:24;99461.44;;;12.08;66.03
54900;BME280;40801;41.924;25.562;2024-02-23T07:06:50;99462.81;;;12.28;63.87
54900;BME280;40801;41.924;25.562;2024-02-23T07:09:16;99459.09;;;12.81;62.52
54900;BME280;40801;41.924;25.562;2024-02-23T07:11:41;99453.97;;;13.48;60.90
54900;BME280;40801;41.924;25.562;2024-02-23T07:14:09;99455.06;;;13.56;58.97
54900;BME280;40801;41.924;25.562;2024-02-23T07:16:38;99443.13;;;14.04;55.71
54900;BME280;40801;41.924;25.562;2024-02-23T07:19:07;99438.03;;;14.61;56.63
54900;BME280;40801;41.924;25.562;2024-02-23T07:21:32;99440.25;;;15.09;55.37
54900;BME280;40801;41.924;25.562;2024-02-23T07:23:58;99454.75;;;15.46;53.89
54900;BME280;40801;41.924;25.562;2024-02-23T07:26:24;99447.97;;;15.53;52.62
54900;BME280;40801;41.924;25.562;2024-02-23T07:28:49;99450.53;;;15.70;51.84
54900;BME280;40801;41.924;25.562;2024-02-23T07:31:15;99441.34;;;15.62;50.98
54900;BME280;40801;41.924;25.562;2024-02-23T07:33:42;99429.72;;;15.98;50.93
54900;BME280;40801;41.924;25.562;2024-02-23T07:36:07;99435.13;;;16.71;50.03
54900;BME280;40801;41.924;25.562;2024-02-23T07:38:34;99444.56;;;17.02;48.79
54900;BME280;40801;41.924;25.562;2024-02-23T07:40:59;99433.44;;;17.35;48.31
54900;BME280;40801;41.924;25.562;2024-02-23T07:43:25;99432.38;;;17.68;47.43
54900;BME280;40801;41.924;25.562;2024-02-23T07:45:51;99430.81;;;17.82;46.74
54900;BME280;40801;41.924;25.562;2024-02-23T07:48:17;99433.63;;;17.86;46.26
54900;BME280;40801;41.924;25.562;2024-02-23T07:50:42;99432.84;;;17.57;44.80
54900;BME280;40801;41.924;25.562;2024-02-23T07:53:07;99432.75;;;17.98;44.65
54900;BME280;40801;41.924;25.562;2024-02-23T07:55:33;99433.69;;;18.72;43.66
54900;BME280;40801;41.924;25.562;2024-02-23T07:57:58;99435.09;;;19.20;43.19
54900;BME280;40801;41.924;25.562;2024-02-23T08:00:27;99443.00;;;19.25;42.39
54900;BME280;40801;41.924;25.562;2024-02-23T08:02:52;99440.56;;;19.39;41.68
54900;BME280;40801;41.924;25.562;2024-02-23T08:05:22;99440.63;;;19.04;41.79
54900;BME280;40801;41.924;25.562;2024-02-23T08:07:47;99439.31;;;19.37;41.11
54900;BME280;40801;41.924;25.562;2024-02-23T08:10:13;99445.25;;;19.81;40.78
54900;BME280;40801;41.924;25.562;2024-02-23T08:12:38;99445.59;;;19.79;40.55
54900;BME280;40801;41.924;25.562;2024-02-23T08:15:04;99446.63;;;20.17;39.59
54900;BME280;40801;41.924;25.562;2024-02-23T08:17:29;99448.81;;;20.08;39.53
54900;BME280;40801;41.924;25.562;2024-02-23T08:19:55;99441.41;;;20.35;39.12
54900;BME280;40801;41.924;25.562;2024-02-23T08:22:20;99437.34;;;21.08;38.40
54900;BME280;40801;41.924;25.562;2024-02-23T08:24:46;99436.47;;;20.70;38.48
54900;BME280;40801;41.924;25.562;2024-02-23T08:27:11;99442.75;;;20.45;37.98
54900;BME280;40801;41.924;25.562;2024-02-23T08:29:38;99441.41;;;21.51;36.87
54900;BME280;40801;41.924;25.562;2024-02-23T08:32:04;99438.56;;;21.81;36.63
54900;BME280;40801;41.924;25.562;2024-02-23T08:34:29;99427.59;;;21.11;36.29
54900;BME280;40801;41.924;25.562;2024-02-23T08:36:55;99440.03;;;21.04;37.01
54900;BME280;40801;41.924;25.562;2024-02-23T08:39:20;99445.63;;;21.42;36.74
54900;BME280;40801;41.924;25.562;2024-02-23T08:41:47;99440.34;;;22.04;36.09
54900;BME280;40801;41.924;25.562;2024-02-23T08:44:12;99436.00;;;22.03;35.57
54900;BME280;40801;41.924;25.562;2024-02-23T08:46:38;99445.16;;;22.76;34.69
54900;BME280;40801;41.924;25.562;2024-02-23T08:49:05;99437.94;;;22.53;34.36
54900;BME280;40801;41.924;25.562;2024-02-23T08:51:30;99431.53;;;22.97;34.44
54900;BME280;40801;41.924;25.562;2024-02-23T08:53:56;99436.81;;;23.48;33.92
54900;BME280;40801;41.924;25.562;2024-02-23T08:56:22;99429.28;;;23.28;33.61
54900;BME280;40801;41.924;25.562;2024-02-23T08:58:48;99429.09;;;22.81;33.94
54900;BME280;40801;41.924;25.562;2024-02-23T09:01:13;99431.13;;;22.88;33.90
54900;BME280;40801;41.924;25.562;2024-02-23T09:03:39;99433.31;;;23.59;33.41
54900;BME280;40801;41.924;25.562;2024-02-23T09:06:04;99438.09;;;24.08;33.04
54900;BME280;40801;41.924;25.562;2024-02-23T09:08:30;99433.59;;;23.25;32.78
54900;BME280;40801;41.924;25.562;2024-02-23T09:10:55;99430.84;;;23.14;33.07
54900;BME280;40801;41.924;25.562;2024-02-23T09:13:20;99425.06;;;23.69;32.29
54900;BME280;40801;41.924;25.562;2024-02-23T09:15:46;99424.31;;;23.83;32.33
54900;BME280;40801;41.924;25.562;2024-02-23T09:18:11;99417.63;;;24.05;32.26
54900;BME280;40801;41.924;25.562;2024-02-23T09:20:37;99412.38;;;24.89;31.32
54900;BME280;40801;41.924;25.562;2024-02-23T09:23:02;99411.28;;;24.51;31.61
54900;BME280;40801;41.924;25.562;2024-02-23T09:25:28;99408.50;;;24.62;31.28
54900;BME280;40801;41.924;25.562;2024-02-23T09:27:57;99413.97;;;24.80;30.33
54900;BME280;40801;41.924;25.562;2024-02-23T09:30:22;99412.47;;;24.50;31.00
54900;BME280;40801;41.924;25.562;2024-02-23T09:32:47;99404.72;;;25.29;30.44
54900;BME280;40801;41.924;25.562;2024-02-23T09:35:13;99398.78;;;25.30;30.07
54900;BME280;40801;41.924;25.562;2024-02-23T09:37:39;99400.84;;;25.09;30.59
54900;BME280;40801;41.924;25.562;2024-02-23T09:40:05;99401.31;;;25.66;30.26
54900;BME280;40801;41.924;25.562;2024-02-23T09:42:31;99390.84;;;25.95;29.60
54900;BME280;40801;41.924;25.562;2024-02-23T09:44:59;99386.25;;;25.78;29.26
54900;BME280;40801;41.924;25.562;2024-02-23T09:47:28;99386.47;;;25.42;29.50
54900;BME280;40801;41.924;25.562;2024-02-23T09:49:54;99387.00;;;26.27;29.24
54900;BME280;40801;41.924;25.562;2024-02-23T09:52:21;99392.22;;;26.59;28.73
54900;BME280;40801;41.924;25.562;2024-02-23T09:54:47;99383.53;;;26.57;28.98
54900;BME280;40801;41.924;25.562;2024-02-23T09:57:13;99383.38;;;26.37;28.74
54900;BME280;40801;41.924;25.562;2024-02-23T09:59:40;99383.03;;;27.30;28.28
54900;BME280;40801;41.924;25.562;2024-02-23T10:02:08;99373.44;;;27.65;28.07
54900;BME280;40801;41.924;25.562;2024-02-23T10:04:38;99381.53;;;27.79;27.69
54900;BME280;40801;41.924;25.562;2024-02-23T10:07:05;99378.13;;;27.41;27.65
54900;BME280;40801;41.924;25.562;2024-02-23T10:09:31;99366.38;;;27.60;27.46
54900;BME280;40801;41.924;25.562;2024-02-23T10:11:56;99361.44;;;27.21;28.04
54900;BME280;40801;41.924;25.562;2024-02-23T10:14:22;99351.50;;;27.74;26.89
54900;BME280;40801;41.924;25.562;2024-02-23T10:16:48;99346.94;;;27.87;27.18
54900;BME280;40801;41.924;25.562;2024-02-23T10:19:19;99343.16;;;28.44;26.74
54900;BME280;40801;41.924;25.562;2024-02-23T10:21:45;99331.38;;;28.17;26.89
54900;BME280;40801;41.924;25.562;2024-02-23T10:24:10;99336.41;;;28.45;26.67
54900;BME280;40801;41.924;25.562;2024-02-23T10:26:36;99317.09;;;28.97;26.15
54900;BME280;40801;41.924;25.562;2024-02-23T10:29:01;99314.19;;;29.21;25.52
54900;BME280;40801;41.924;25.562;2024-02-23T10:31:30;99321.09;;;28.57;26.14
54900;BME280;40801;41.924;25.562;2024-02-23T10:33:59;99301.47;;;28.67;25.67
54900;BME280;40801;41.924;25.562;2024-02-23T10:36:27;99303.25;;;29.46;25.29
54900;BME280;40801;41.924;25.562;2024-02-23T10:38:56;99294.22;;;29.26;25.70
54900;BME280;40801;41.924;25.562;2024-02-23T10:41:24;99295.06;;;29.07;25.50
54900;BME280;40801;41.924;25.562;2024-02-23T10:43:51;99285.41;;;28.39;26.55
54900;BME280;40801;41.924;25.562;2024-02-23T10:46:18;99274.84;;;28.70;26.37
54900;BME280;40801;41.924;25.562;2024-02-23T10:48:45;99280.56;;;28.79;26.62
54900;BME280;40801;41.924;25.562;2024-02-23T10:51:14;99271.72;;;29.69;25.24
54900;BME280;40801;41.924;25.562;2024-02-23T10:53:40;99267.91;;;29.79;25.44
54900;BME280;40801;41.924;25.562;2024-02-23T10:56:06;99262.44;;;30.34;24.98
54900;BME280;40801;41.924;25.562;2024-02-23T10:58:32;99269.22;;;31.38;24.25
54900;BME280;40801;41.924;25.562;2024-02-23T11:01:02;99264.25;;;32.02;22.82
54900;BME280;40801;41.924;25.562;2024-02-23T11:03:30;99251.66;;;32.19;22.22
54900;BME280;40801;41.924;25.562;2024-02-23T11:05:56;99243.88;;;32.36;21.40
54900;BME280;40801;41.924;25.562;2024-02-23T11:08:22;99237.19;;;32.55;21.85
54900;BME280;40801;41.924;25.562;2024-02-23T11:10:51;99247.13;;;32.13;21.40
54900;BME280;40801;41.924;25.562;2024-02-23T11:13:38;99239.78;;;32.06;21.37
54900;BME280;40801;41.924;25.562;2024-02-23T11:16:05;99224.09;;;31.65;21.93
54900;BME280;40801;41.924;25.562;2024-02-23T11:18:34;99231.88;;;31.70;21.23
54900;BME280;40801;41.924;25.562;2024-02-23T11:21:02;99219.06;;;31.12;22.04
54900;BME280;40801;41.924;25.562;2024-02-23T11:23:50;99208.72;;;30.88;22.68
54900;BME280;40801;41.924;25.562;2024-02-23T11:26:17;99203.94;;;30.88;23.12
54900;BME280;40801;41.924;25.562;2024-02-23T11:28:47;99203.59;;;31.11;22.59
54900;BME280;40801;41.924;25.562;2024-02-23T11:31:15;99203.13;;;31.13;21.77
54900;BME280;40801;41.924;25.562;2024-02-23T11:33:54;99195.03;;;31.88;21.46
54900;BME280;40801;41.924;25.562;2024-02-23T11:36:31;99193.09;;;31.97;21.33
54900;BME280;40801;41.924;25.562;2024-02-23T11:38:58;99198.25;;;31.17;21.78
54900;BME280;40801;41.924;25.562;2024-02-23T11:41:25;99191.25;;;30.87;22.06
54900;BME280;40801;41.924;25.562;2024-02-23T11:43:51;99190.91;;;30.98;22.53
54900;BME280;40801;41.924;25.562;2024-02-23T11:46:18;99187.66;;;31.59;21.63
54900;BME280;40801;41.924;25.562;2024-02-23T11:48:44;99173.91;;;32.09;21.46
54900;BME280;40801;41.924;25.562;2024-02-23T11:51:10;99182.66;;;32.11;20.92
54900;BME280;40801;41.924;25.562;2024-02-23T11:53:38;99176.44;;;32.38;19.77
54900;BME280;40801;41.924;25.562;2024-02-23T11:56:07;99162.06;;;31.95;20.29
54900;BME280;40801;41.924;25.562;2024-02-23T11:58:32;99185.94;;;31.74;20.59
54900;BME280;40801;41.924;25.562;2024-02-23T12:00:59;99175.50;;;31.31;21.12
54900;BME280;40801;41.924;25.562;2024-02-23T12:03:28;99161.75;;;31.71;21.11
54900;BME280;40801;41.924;25.562;2024-02-23T12:05:53;99170.16;;;31.11;21.17
54900;BME280;40801;41.924;25.562;2024-02-23T12:08:18;99163.69;;;31.14;21.04
54900;BME280;40801;41.924;25.562;2024-02-23T12:10:44;99168.19;;;31.47;20.76
54900;BME280;40801;41.924;25.562;2024-02-23T12:13:09;99160.47;;;31.51;20.83
54900;BME280;40801;41.924;25.562;2024-02-23T12:15:35;99162.28;;;30.59;21.61
54900;BME280;40801;41.924;25.562;2024-02-23T12:18:03;99142.53;;;30.03;22.37
54900;BME280;40801;41.924;25.562;2024-02-23T12:20:32;99156.63;;;30.37;22.35
54900;BME280;40801;41.924;25.562;2024-02-23T12:22:58;99155.84;;;30.75;21.87
54900;BME280;40801;41.924;25.562;2024-02-23T12:25:25;99165.56;;;31.30;21.49
54900;BME280;40801;41.924;25.562;2024-02-23T12:27:55;99152.75;;;31.33;21.26
54900;BME280;40801;41.924;25.562;2024-02-23T12:30:22;99150.03;;;31.42;21.40
54900;BME280;40801;41.924;25.562;2024-02-23T12:32:47;99148.44;;;31.06;21.62
54900;BME280;40801;41.924;25.562;2024-02-23T12:35:14;99145.44;;;30.12;22.15
54900;BME280;40801;41.924;25.562;2024-02-23T12:37:40;99148.56;;;30.27;22.44
54900;BME280;40801;41.924;25.562;2024-02-23T12:40:07;99150.91;;;28.80;23.62
54900;BME280;40801;41.924;25.562;2024-02-23T12:42:32;99151.91;;;28.17;24.45
54900;BME280;40801;41.924;25.562;2024-02-23T12:44:58;99136.84;;;29.19;23.09
54900;BME280;40801;41.924;25.562;2024-02-23T12:47:23;99134.09;;;29.48;23.02
54900;BME280;40801;41.924;25.562;2024-02-23T12:49:49;99133.19;;;29.68;23.29